createdAt,value
2023-11-24T00:01:10.406Z,101449.63
2023-11-24T00:03:41.784Z,101390.94
2023-11-24T00:06:12.971Z,101426.69
2023-11-24T00:08:44.308Z,101428.25
2023-11-24T00:11:16.541Z,101437.88
2023-11-24T00:13:45.861Z,101441.50
2023-11-24T00:16:16.580Z,101376.38
2023-11-24T00:18:46.039Z,101426.59
2023-11-24T00:21:16.555Z,101431.97
2023-11-24T00:23:50.871Z,101422.91
2023-11-24T00:26:25.014Z,101267.88
2023-11-24T00:29:01.486Z,101431.31
2023-11-24T00:31:33.053Z,101421.09
2023-11-24T00:34:03.216Z,101427.19
2023-11-24T00:36:33.721Z,101404.75
2023-11-24T00:39:05.529Z,101396.81
2023-11-24T00:41:38.191Z,101395.06
2023-11-24T00:44:07.800Z,101395.78
2023-11-24T00:46:40.763Z,101389.25
2023-11-24T00:49:10.156Z,101385.06
2023-11-24T00:51:39.352Z,101357.44
2023-11-24T00:54:11.142Z,101387.59
2023-11-24T00:56:43.381Z,101384.63
2023-11-24T00:59:15.211Z,101381.84
2023-11-24T01:01:44.345Z,101386.72
2023-11-24T01:04:13.929Z,101386.53
2023-11-24T01:06:45.850Z,101394.16
2023-11-24T01:09:16.986Z,101157.25
2023-11-24T01:11:46.278Z,101391.47
2023-11-24T01:14:16.100Z,101409.69
2023-11-24T01:16:45.508Z,101397.03
2023-11-24T01:19:15.992Z,101368.75
2023-11-24T01:21:45.299Z,101404.75
2023-11-24T01:24:16.244Z,101421.94
2023-11-24T01:26:48.812Z,101418.06
2023-11-24T01:29:18.246Z,101381.88
2023-11-24T01:31:50.210Z,101414.81
2023-11-24T01:34:19.740Z,101402.91
2023-11-24T01:36:49.898Z,101388.41
2023-11-24T01:39:22.333Z,101382.06
2023-11-24T01:41:52.309Z,101381.13
2023-11-24T01:44:23.828Z,101397.84
2023-11-24T01:46:53.231Z,101394.72
2023-11-24T01:49:26.049Z,101369.53
2023-11-24T01:51:57.072Z,101402.78
2023-11-24T01:54:38.083Z,101389.91
2023-11-24T01:57:17.516Z,101392.22
2023-11-24T01:59:49.615Z,101379.97
2023-11-24T02:02:22.239Z,101383.09
2023-11-24T02:04:52.472Z,101384.34
2023-11-24T02:07:24.316Z,101333.16
2023-11-24T02:09:55.306Z,101378.75
2023-11-24T02:12:25.011Z,101370.63
2023-11-24T02:14:56.870Z,101354.84
2023-11-24T02:17:26.752Z,101364.41
2023-11-24T02:19:58.337Z,101354.09
2023-11-24T02:22:28.157Z,101374.38
2023-11-24T02:24:58.832Z,101337.81
2023-11-24T02:27:28.726Z,101296.03
2023-11-24T02:29:58.724Z,101331.78
2023-11-24T02:32:28.079Z,101328.13
2023-11-24T02:34:57.996Z,101285.78
2023-11-24T02:37:27.503Z,101328.69
2023-11-24T02:39:58.542Z,101321.59
2023-11-24T02:42:28.098Z,101319.94
2023-11-24T02:44:57.584Z,101329.25
2023-11-24T02:47:27.211Z,101311.09
2023-11-24T02:49:58.785Z,101320.31
2023-11-24T02:52:28.172Z,101317.09
2023-11-24T02:54:58.611Z,101314.59
2023-11-24T02:57:28.036Z,101282.75
2023-11-24T02:59:57.329Z,101307.66
2023-11-24T03:02:27.058Z,101300.75
2023-11-24T03:04:56.326Z,101296.34
2023-11-24T03:07:26.930Z,101220.47
2023-11-24T03:09:59.880Z,101274.94
2023-11-24T03:12:29.271Z,101283.56
2023-11-24T03:14:59.457Z,101110.59
2023-11-24T03:17:29.090Z,101300.34
2023-11-24T03:19:58.758Z,101286.63
2023-11-24T03:22:28.432Z,101305.81
2023-11-24T03:24:59.476Z,101318.13
2023-11-24T03:27:29.192Z,101296.63
2023-11-24T03:29:58.516Z,101295.16
2023-11-24T03:32:28.818Z,101285.31
2023-11-24T03:35:01.325Z,101277.91
2023-11-24T03:37:30.724Z,101276.63
2023-11-24T03:40:02.849Z,101254.34
2023-11-24T03:42:31.909Z,101252.00
2023-11-24T03:45:02.466Z,101258.69
2023-11-24T03:47:32.329Z,101264.09
2023-11-24T03:50:02.290Z,101261.16
2023-11-24T03:52:31.348Z,101263.91
2023-11-24T03:55:02.574Z,101267.06
2023-11-24T03:57:32.083Z,101264.28
2023-11-24T04:00:01.686Z,101250.94
2023-11-24T04:02:31.174Z,101243.84
2023-11-24T04:05:00.439Z,101249.50
2023-11-24T04:07:31.939Z,101250.09
2023-11-24T04:10:02.763Z,101248.72
2023-11-24T04:12:32.346Z,101256.69
2023-11-24T04:15:06.034Z,101071.53
2023-11-24T04:17:39.517Z,101287.09
2023-11-24T04:20:10.992Z,101283.66
2023-11-24T04:22:40.671Z,101215.88
2023-11-24T04:25:29.535Z,101264.31
2023-11-24T04:27:59.127Z,101256.06
2023-11-24T04:30:29.243Z,101254.09
2023-11-24T04:32:58.685Z,101243.47
2023-11-24T04:35:28.588Z,101238.13
2023-11-24T04:37:58.329Z,101239.47
2023-11-24T04:40:27.424Z,101229.00
2023-11-24T04:42:58.082Z,101232.53
2023-11-24T04:45:27.287Z,101256.22
2023-11-24T04:47:56.989Z,101223.91
2023-11-24T04:50:27.155Z,101225.94
2023-11-24T04:52:56.552Z,101226.25
2023-11-24T04:55:38.116Z,101231.28
2023-11-24T04:58:08.877Z,101250.34
2023-11-24T05:00:39.821Z,101246.88
2023-11-24T05:03:10.492Z,101237.94
2023-11-24T05:05:45.820Z,101177.84
2023-11-24T05:08:15.621Z,101168.19
2023-11-24T05:10:46.969Z,101040.91
2023-11-24T05:13:17.241Z,101217.00
2023-11-24T05:15:49.604Z,101201.56
2023-11-24T05:18:18.985Z,101199.06
2023-11-24T05:20:48.282Z,101208.34
2023-11-24T05:23:17.592Z,101202.25
2023-11-24T05:25:46.675Z,101204.25
2023-11-24T05:28:17.320Z,101193.34
2023-11-24T05:30:47.372Z,101203.00
2023-11-24T05:33:16.669Z,101202.34
2023-11-24T05:35:46.338Z,101200.59
2023-11-24T05:38:16.503Z,101198.22
2023-11-24T05:40:46.683Z,101200.66
2023-11-24T05:43:17.183Z,101199.09
2023-11-24T05:45:48.555Z,101202.28
2023-11-24T05:48:18.288Z,101209.91
2023-11-24T05:50:47.357Z,101204.75
2023-11-24T05:53:16.648Z,101012.28
2023-11-24T05:55:45.927Z,101187.56
2023-11-24T05:58:18.656Z,101187.66
2023-11-24T06:00:49.844Z,101197.19
2023-11-24T06:03:20.342Z,101174.16
2023-11-24T06:05:49.625Z,101186.31
2023-11-24T06:08:18.909Z,101170.81
2023-11-24T06:10:49.598Z,101184.88
2023-11-24T06:13:20.138Z,101182.66
2023-11-24T06:15:49.897Z,101195.19
2023-11-24T06:18:19.632Z,101176.84
2023-11-24T06:20:48.787Z,101193.03
2023-11-24T06:23:18.223Z,101193.41
2023-11-24T06:25:47.440Z,101206.69
2023-11-24T06:28:17.043Z,101203.94
2023-11-24T06:30:48.040Z,101195.72
2023-11-24T06:33:17.556Z,101198.97
2023-11-24T06:35:47.164Z,101182.38
2023-11-24T06:38:16.512Z,101154.88
2023-11-24T06:40:45.939Z,101184.97
2023-11-24T06:43:19.060Z,101190.91
2023-11-24T06:45:49.644Z,101184.19
2023-11-24T06:48:18.737Z,101173.69
2023-11-24T06:50:48.081Z,101010.91
2023-11-24T06:53:17.743Z,101226.53
2023-11-24T06:55:46.873Z,101213.91
2023-11-24T06:58:16.418Z,101202.97
2023-11-24T07:00:51.761Z,101194.22
2023-11-24T07:03:21.130Z,101194.44
2023-11-24T07:05:50.520Z,101194.66
2023-11-24T07:08:20.020Z,101210.03
2023-11-24T07:10:49.641Z,101156.69
2023-11-24T07:13:19.042Z,101185.34
2023-11-24T07:15:49.687Z,101194.50
2023-11-24T07:18:19.066Z,101195.09
2023-11-24T07:20:52.851Z,101159.25
2023-11-24T07:23:21.876Z,101189.22
2023-11-24T07:25:51.129Z,101184.00
2023-11-24T07:28:23.264Z,101165.69
2023-11-24T07:30:56.115Z,101191.56
2023-11-24T07:33:25.519Z,101197.59
2023-11-24T07:35:54.982Z,101160.06
2023-11-24T07:38:31.048Z,101181.72
2023-11-24T07:41:10.585Z,101141.25
2023-11-24T07:43:51.030Z,101192.75
2023-11-24T07:46:21.852Z,101195.38
2023-11-24T07:48:56.503Z,101186.91
2023-11-24T07:51:32.373Z,101190.41
2023-11-24T07:54:01.621Z,101197.31
2023-11-24T07:56:33.043Z,101178.72
2023-11-24T07:59:02.729Z,101143.09
2023-11-24T08:01:33.383Z,101175.09
2023-11-24T08:04:03.010Z,101162.97
2023-11-24T08:06:32.400Z,101151.06
2023-11-24T08:09:04.558Z,101162.63
2023-11-24T08:11:34.065Z,101175.44
2023-11-24T08:14:03.914Z,101189.25
2023-11-24T08:16:36.853Z,101191.28
2023-11-24T08:19:09.473Z,101192.53
2023-11-24T08:21:38.963Z,101183.97
2023-11-24T08:24:10.609Z,101180.78
2023-11-24T08:26:44.350Z,101183.38
2023-11-24T08:29:14.705Z,101184.84
2023-11-24T08:31:49.407Z,101188.72
2023-11-24T08:34:19.190Z,101190.50
2023-11-24T08:36:48.350Z,101181.28
2023-11-24T08:39:19.195Z,101184.16
2023-11-24T08:41:50.659Z,101176.91
2023-11-24T08:44:28.877Z,101172.94
2023-11-24T08:46:59.300Z,101118.16
2023-11-24T08:49:28.399Z,101177.72
2023-11-24T08:51:57.821Z,101163.13
2023-11-24T08:54:27.006Z,101163.81
2023-11-24T08:56:56.383Z,101164.78
2023-11-24T08:59:25.506Z,101169.81
2023-11-24T09:01:56.979Z,101101.34
2023-11-24T09:04:33.418Z,101156.75
2023-11-24T09:07:05.934Z,101155.59
2023-11-24T09:09:35.110Z,101137.94
2023-11-24T09:12:04.743Z,101149.16
2023-11-24T09:14:35.166Z,101145.75
2023-11-24T09:17:04.494Z,101152.44
2023-11-24T09:19:35.358Z,101152.38
2023-11-24T09:22:07.483Z,101150.78
2023-11-24T09:24:37.121Z,101152.47
2023-11-24T09:27:10.017Z,101159.56
2023-11-24T09:29:40.826Z,101152.53
2023-11-24T09:32:10.441Z,101148.03
2023-11-24T09:34:45.120Z,101109.03
2023-11-24T09:37:14.370Z,101143.38
2023-11-24T09:39:43.542Z,101151.31
2023-11-24T09:42:19.866Z,101129.38
2023-11-24T09:44:50.697Z,101141.84
2023-11-24T09:47:21.715Z,101139.84
2023-11-24T09:49:52.797Z,101141.94
2023-11-24T09:52:25.262Z,101135.25
2023-11-24T09:55:00.294Z,101106.38
2023-11-24T09:57:29.768Z,101142.03
2023-11-24T09:59:58.888Z,101133.34
2023-11-24T10:02:29.328Z,101139.00
2023-11-24T10:04:59.925Z,101119.03
2023-11-24T10:07:32.020Z,101118.56
2023-11-24T10:10:01.657Z,101123.66
2023-11-24T10:12:32.210Z,101113.06
2023-11-24T10:15:05.261Z,101142.72
2023-11-24T10:17:36.296Z,101125.75
2023-11-24T10:20:13.840Z,101105.91
2023-11-24T10:22:45.001Z,101111.06
2023-11-24T10:25:16.326Z,101106.81
2023-11-24T10:27:46.178Z,101114.16
2023-11-24T10:30:19.948Z,101115.19
2023-11-24T10:32:52.793Z,101113.56
2023-11-24T10:35:26.213Z,101111.63
2023-11-24T10:37:57.573Z,101106.50
2023-11-24T10:40:27.963Z,101076.94
2023-11-24T10:42:59.083Z,101101.03
2023-11-24T10:45:32.454Z,101089.69
2023-11-24T10:48:17.082Z,101090.13
2023-11-24T10:50:54.864Z,101094.25
2023-11-24T10:53:28.148Z,100991.34
2023-11-24T10:56:01.290Z,101073.25
2023-11-24T10:58:35.350Z,101071.22
2023-11-24T11:01:08.270Z,101044.81
2023-11-24T11:03:43.259Z,101071.13
2023-11-24T11:06:25.464Z,101059.78
2023-11-24T11:09:09.821Z,101062.22
2023-11-24T11:11:54.171Z,101056.06
2023-11-24T11:14:24.305Z,101046.03
2023-11-24T11:16:56.739Z,101041.84
2023-11-24T11:19:32.647Z,101036.47
2023-11-24T11:22:03.624Z,100826.31
2023-11-24T11:24:32.809Z,101031.59
2023-11-24T11:27:02.197Z,101043.69
2023-11-24T11:29:34.849Z,101054.38
2023-11-24T11:32:13.318Z,101054.50
2023-11-24T11:34:44.051Z,101056.19
2023-11-24T11:37:22.288Z,101006.53
2023-11-24T11:39:58.820Z,101033.13
2023-11-24T11:42:52.997Z,101030.09
2023-11-24T11:45:31.467Z,101021.03
2023-11-24T11:48:04.322Z,101002.69
2023-11-24T11:50:36.037Z,101016.53
2023-11-24T11:53:07.100Z,101018.91
2023-11-24T11:55:37.274Z,101014.25
2023-11-24T11:58:08.132Z,101015.19
2023-11-24T12:00:41.420Z,101023.06
2023-11-24T12:03:11.345Z,101032.25
2023-11-24T12:05:42.271Z,101039.41
2023-11-24T12:08:12.954Z,101061.00
2023-11-24T12:10:47.013Z,101027.81
2023-11-24T12:13:16.818Z,101014.25
2023-11-24T12:15:47.089Z,101025.16
2023-11-24T12:18:16.627Z,101019.19
2023-11-24T12:20:45.734Z,101018.53
2023-11-24T12:23:17.469Z,101006.13
2023-11-24T12:25:47.313Z,100851.69
2023-11-24T12:28:17.427Z,100628.09
2023-11-24T12:30:47.807Z,101004.41
2023-11-24T12:33:21.628Z,101026.56
2023-11-24T12:35:51.998Z,100967.13
2023-11-24T12:38:28.608Z,100981.09
2023-11-24T12:40:58.027Z,100782.06
2023-11-24T12:43:27.520Z,100964.81
2023-11-24T12:45:59.161Z,100961.25
2023-11-24T12:48:28.896Z,100959.34
2023-11-24T12:50:59.792Z,100956.38
2023-11-24T12:53:30.576Z,100922.97
2023-11-24T12:56:00.219Z,100915.66
2023-11-24T12:58:30.386Z,100982.22
2023-11-24T13:00:59.817Z,100956.31
2023-11-24T13:03:29.557Z,100938.66
2023-11-24T13:05:58.692Z,100975.03
2023-11-24T13:08:29.786Z,101007.25
2023-11-24T13:10:59.510Z,100979.88
2023-11-24T13:13:29.007Z,100963.78
2023-11-24T13:15:59.470Z,100981.53
2023-11-24T13:18:31.745Z,100988.44
2023-11-24T13:21:00.684Z,100993.41
2023-11-24T13:23:31.434Z,100997.34
2023-11-24T13:26:01.063Z,100993.44
2023-11-24T13:28:31.050Z,100988.06
2023-11-24T13:31:01.149Z,100976.16
2023-11-24T13:33:31.473Z,100979.41
2023-11-24T13:36:02.103Z,100993.75
2023-11-24T13:38:32.603Z,100979.00
2023-11-24T13:41:02.260Z,100985.31
2023-11-24T13:43:37.809Z,100983.50
2023-11-24T13:46:08.353Z,100966.56
2023-11-24T13:48:44.801Z,100955.56
2023-11-24T13:51:14.753Z,100953.44
2023-11-24T13:53:50.999Z,100917.91
2023-11-24T13:56:20.866Z,100932.28
2023-11-24T13:58:52.790Z,100953.59
2023-11-24T14:01:22.606Z,100968.22
2023-11-24T14:03:52.425Z,100948.78
2023-11-24T14:06:23.520Z,100930.31
2023-11-24T14:08:54.319Z,100972.94
2023-11-24T14:11:23.696Z,100981.03
2023-11-24T14:13:53.217Z,100987.75
2023-11-24T14:16:29.540Z,100986.88
2023-11-24T14:19:01.343Z,100923.06
2023-11-24T14:21:31.085Z,100963.34
2023-11-24T14:24:04.783Z,100939.56
2023-11-24T14:26:35.018Z,100966.50
2023-11-24T14:29:05.671Z,100912.84
2023-11-24T14:31:35.063Z,100968.72
2023-11-24T14:34:06.382Z,100944.47
2023-11-24T14:36:43.146Z,100982.72
2023-11-24T14:39:26.154Z,101001.72
2023-11-24T14:41:56.188Z,100986.66
2023-11-24T14:44:28.473Z,100980.75
2023-11-24T14:47:02.783Z,100969.06
2023-11-24T14:49:32.290Z,100973.72
2023-11-24T14:52:06.029Z,100965.44
2023-11-24T14:54:38.699Z,100960.88
2023-11-24T14:57:08.175Z,100962.78
2023-11-24T14:59:37.456Z,100990.84
2023-11-24T15:02:14.162Z,101007.66
2023-11-24T15:04:44.339Z,101032.28
2023-11-24T15:07:14.597Z,101001.75
2023-11-24T15:09:47.371Z,100993.41
2023-11-24T15:12:16.895Z,100999.59
2023-11-24T15:14:48.970Z,100997.66
2023-11-24T15:17:21.022Z,100979.50
2023-11-24T15:19:54.192Z,100999.81
2023-11-24T15:22:28.400Z,100991.84
2023-11-24T15:24:59.655Z,100969.81
2023-11-24T15:27:31.199Z,100982.81
2023-11-24T15:30:01.996Z,101004.34
2023-11-24T15:32:31.707Z,101049.69
2023-11-24T15:35:00.982Z,101014.03
2023-11-24T15:37:30.251Z,101035.81
2023-11-24T15:40:10.444Z,101040.72
2023-11-24T15:42:40.116Z,101025.38
2023-11-24T15:45:16.184Z,101001.69
2023-11-24T15:48:02.796Z,101015.31
2023-11-24T15:50:36.371Z,101005.00
2023-11-24T15:53:06.964Z,100987.50
2023-11-24T15:55:44.264Z,100981.91
2023-11-24T15:58:15.059Z,100967.88
2023-11-24T16:00:48.161Z,100942.59
2023-11-24T16:03:18.884Z,101007.16
2023-11-24T16:05:50.665Z,100995.72
2023-11-24T16:08:22.148Z,101008.03
2023-11-24T16:10:57.980Z,100996.19
2023-11-24T16:13:27.631Z,100977.03
2023-11-24T16:16:00.916Z,100998.44
2023-11-24T16:18:35.294Z,100993.72
2023-11-24T16:21:08.868Z,100987.38
2023-11-24T16:23:38.200Z,100970.03
2023-11-24T16:26:11.624Z,100973.59
2023-11-24T16:28:41.048Z,100973.34
2023-11-24T16:31:11.859Z,100979.34
2023-11-24T16:33:42.100Z,100974.97
2023-11-24T16:36:18.071Z,100974.13
2023-11-24T16:38:47.205Z,101006.53
2023-11-24T16:41:18.051Z,101005.44
2023-11-24T16:43:47.265Z,100990.44
2023-11-24T16:46:16.791Z,101020.91
2023-11-24T16:48:46.140Z,101006.47
2023-11-24T16:51:18.034Z,101015.88
2023-11-24T16:53:47.703Z,101013.75
2023-11-24T16:56:18.593Z,101017.25
2023-11-24T16:58:47.655Z,101015.59
2023-11-24T17:01:16.920Z,101004.91
2023-11-24T17:03:46.106Z,101001.56
2023-11-24T17:06:15.632Z,100964.88
2023-11-24T17:08:49.561Z,100990.09
2023-11-24T17:11:20.030Z,100747.13
2023-11-24T17:13:49.727Z,100985.38
2023-11-24T17:16:20.089Z,100987.88
2023-11-24T17:18:49.080Z,100968.09
2023-11-24T17:21:18.545Z,100972.19
2023-11-24T17:23:47.576Z,100979.19
2023-11-24T17:26:20.456Z,101005.78
2023-11-24T17:28:54.722Z,101006.91
2023-11-24T17:31:26.905Z,101008.97
2023-11-24T17:33:57.679Z,100990.56
2023-11-24T17:36:32.491Z,101006.78
2023-11-24T17:39:02.179Z,100983.25
2023-11-24T17:41:32.664Z,101004.41
2023-11-24T17:44:02.826Z,100828.69
2023-11-24T17:46:37.097Z,100746.16
2023-11-24T17:49:12.470Z,100973.97
2023-11-24T17:51:52.290Z,101007.41
2023-11-24T17:54:22.580Z,101017.69
2023-11-24T17:56:56.833Z,101011.94
2023-11-24T17:59:26.346Z,101021.97
2023-11-24T18:01:55.595Z,101015.16
2023-11-24T18:04:25.483Z,101020.84
2023-11-24T18:06:55.279Z,101000.34
2023-11-24T18:09:24.619Z,101015.44
2023-11-24T18:11:56.157Z,100911.91
2023-11-24T18:14:25.525Z,101027.00
2023-11-24T18:16:55.202Z,101037.44
2023-11-24T18:19:28.199Z,101030.63
2023-11-24T18:21:57.254Z,101036.03
2023-11-24T18:24:33.143Z,101022.78
2023-11-24T18:27:05.143Z,101017.72
2023-11-24T18:29:34.594Z,101023.59
2023-11-24T18:32:04.431Z,101039.34
2023-11-24T18:34:33.894Z,100974.94
2023-11-24T18:37:06.661Z,101013.91
2023-11-24T18:39:35.948Z,101025.66
2023-11-24T18:42:07.104Z,101024.00
2023-11-24T18:44:36.218Z,101016.88
2023-11-24T18:47:05.921Z,100837.63
2023-11-24T18:49:37.348Z,101019.47
2023-11-24T18:52:06.866Z,101041.84
2023-11-24T18:54:35.929Z,101030.72
2023-11-24T18:57:07.012Z,101000.66
2023-11-24T18:59:38.857Z,101091.78
2023-11-24T19:02:08.685Z,101090.13
2023-11-24T19:04:37.833Z,101089.88
2023-11-24T19:07:07.173Z,101070.19
2023-11-24T19:09:36.717Z,101077.50
2023-11-24T19:12:08.438Z,101097.53
2023-11-24T19:14:37.692Z,101084.16
2023-11-24T19:17:07.612Z,101072.34
2023-11-24T19:19:37.132Z,101014.91
2023-11-24T19:22:09.221Z,100830.50
2023-11-24T19:24:38.392Z,100834.66
2023-11-24T19:27:09.418Z,101053.88
2023-11-24T19:29:38.430Z,100883.44
2023-11-24T19:32:10.016Z,101060.13
2023-11-24T19:34:39.377Z,101068.91
2023-11-24T19:37:09.816Z,101068.69
2023-11-24T19:39:41.169Z,101061.94
2023-11-24T19:42:11.898Z,101061.44
2023-11-24T19:44:41.083Z,101065.53
2023-11-24T19:47:24.689Z,101059.00
2023-11-24T19:49:55.053Z,101065.19
2023-11-24T19:52:27.338Z,101034.44
2023-11-24T19:55:00.049Z,101070.09
2023-11-24T19:57:34.913Z,101086.31
2023-11-24T20:00:09.599Z,101091.91
2023-11-24T20:02:41.297Z,101097.44
2023-11-24T20:05:11.340Z,101009.53
2023-11-24T20:07:40.949Z,101116.94
2023-11-24T20:10:11.389Z,101126.50
2023-11-24T20:12:41.933Z,101109.09
2023-11-24T20:15:11.749Z,101099.06
2023-11-24T20:17:41.162Z,101105.84
2023-11-24T20:20:11.473Z,101102.38
2023-11-24T20:22:40.405Z,101117.13
2023-11-24T20:30:22.014Z,101134.47
2023-11-24T20:32:53.963Z,101122.97
2023-11-24T20:35:25.673Z,101129.69
2023-11-24T20:37:54.966Z,101128.13
2023-11-24T20:40:24.627Z,100916.16
2023-11-24T20:42:53.981Z,101128.47
2023-11-24T20:45:24.390Z,101130.31
2023-11-24T20:47:55.090Z,101133.91
2023-11-24T20:50:25.062Z,101174.09
2023-11-24T20:52:54.085Z,101170.34
2023-11-24T20:55:23.199Z,101178.31
2023-11-24T20:57:52.285Z,101155.00
2023-11-24T21:00:25.113Z,101160.22
2023-11-24T21:02:56.764Z,101162.84
2023-11-24T21:05:26.894Z,101105.22
2023-11-24T21:07:58.511Z,101156.13
2023-11-24T21:10:27.962Z,101154.56
2023-11-24T21:12:57.508Z,101157.00
2023-11-24T21:15:29.905Z,101142.44
2023-11-24T21:18:04.823Z,101152.97
2023-11-24T21:20:35.012Z,101152.09
2023-11-24T21:23:04.735Z,101106.25
2023-11-24T21:25:35.405Z,100976.56
2023-11-24T21:28:05.012Z,101177.16
2023-11-24T21:30:35.806Z,101205.66
2023-11-24T21:33:08.398Z,101186.97
2023-11-24T21:35:39.657Z,101161.38
2023-11-24T21:38:09.242Z,101170.06
2023-11-24T21:40:38.853Z,101179.81
2023-11-24T21:43:10.962Z,101176.97
2023-11-24T21:45:42.161Z,101193.06
2023-11-24T21:48:11.736Z,101189.53
2023-11-24T21:50:41.568Z,101198.09
2023-11-24T21:53:10.896Z,101190.41
2023-11-24T21:55:40.312Z,100992.53
2023-11-24T21:58:09.728Z,101198.13
2023-11-24T22:00:39.278Z,101211.06
2023-11-24T22:03:10.648Z,101206.59
2023-11-24T22:05:43.764Z,101225.69
2023-11-24T22:08:14.838Z,101215.13
2023-11-24T22:10:46.632Z,101213.16
2023-11-24T22:13:18.662Z,101213.22
2023-11-24T22:15:50.390Z,101221.63
2023-11-24T22:18:21.323Z,101225.31
2023-11-24T22:20:51.046Z,101220.94
2023-11-24T22:23:20.731Z,101221.56
2023-11-24T22:25:49.916Z,101230.63
2023-11-24T22:28:19.747Z,101228.91
2023-11-24T22:30:49.307Z,101236.75
2023-11-24T22:33:19.194Z,101235.78
2023-11-24T22:35:49.947Z,101250.38
2023-11-24T22:38:21.576Z,101197.22
2023-11-24T22:40:53.868Z,101250.00
2023-11-24T22:43:25.804Z,101253.44
2023-11-24T22:45:55.610Z,101239.50
2023-11-24T22:48:31.320Z,101248.03
2023-11-24T22:51:02.118Z,101245.47
2023-11-24T22:53:34.245Z,101197.75
2023-11-24T22:56:04.906Z,101243.63
2023-11-24T22:58:34.361Z,101251.31
2023-11-24T23:01:06.396Z,101261.47
2023-11-24T23:03:35.944Z,101267.63
2023-11-24T23:06:07.012Z,101281.28
2023-11-24T23:08:37.686Z,101269.13
2023-11-24T23:11:07.362Z,101262.28
2023-11-24T23:13:38.432Z,101213.72
2023-11-24T23:16:08.672Z,101260.44
2023-11-24T23:18:39.407Z,101264.00
2023-11-24T23:21:12.597Z,101267.66
2023-11-24T23:23:42.975Z,101275.44
2023-11-24T23:26:13.120Z,101271.09
2023-11-24T23:28:42.585Z,101279.78
2023-11-24T23:31:13.597Z,101305.59
2023-11-24T23:33:44.193Z,101289.31
2023-11-24T23:36:16.299Z,101290.78
2023-11-24T23:38:46.728Z,101268.78
2023-11-24T23:41:18.966Z,101280.72
2023-11-24T23:43:48.173Z,101251.13
2023-11-24T23:46:17.253Z,101228.03
2023-11-24T23:48:46.716Z,101287.75
2023-11-24T23:51:22.157Z,101273.31
2023-11-24T23:53:53.909Z,101286.56
2023-11-24T23:56:23.313Z,101275.53
2023-11-24T23:58:52.777Z,101297.84
